createdAt,value
2023-01-29T00:01:57.764Z,79.57
2023-01-29T00:04:25.010Z,79.84
2023-01-29T00:06:51.684Z,80.25
2023-01-29T00:09:18.854Z,79.99
2023-01-29T00:11:45.532Z,80.37
2023-01-29T00:14:12.095Z,80.20
2023-01-29T00:16:38.846Z,80.12
2023-01-29T00:19:05.651Z,80.82
2023-01-29T00:21:32.477Z,81.07
2023-01-29T00:23:59.837Z,81.08
2023-01-29T00:26:27.925Z,81.52
2023-01-29T00:28:57.335Z,81.44
2023-01-29T00:31:25.352Z,81.21
2023-01-29T00:33:53.055Z,81.13
2023-01-29T00:36:22.121Z,81.02
2023-01-29T00:38:58.768Z,80.89
2023-01-29T00:41:50.544Z,81.15
2023-01-29T00:44:36.605Z,80.96
2023-01-29T00:47:04.943Z,80.77
2023-01-29T00:49:31.524Z,80.55
2023-01-29T00:52:17.201Z,80.26
2023-01-29T00:54:43.786Z,80.22
2023-01-29T00:57:10.548Z,79.93
2023-01-29T00:59:37.743Z,79.66
2023-01-29T01:02:23.550Z,79.38
2023-01-29T01:04:50.173Z,79.41
2023-01-29T01:07:16.993Z,79.36
2023-01-29T01:10:02.241Z,79.42
2023-01-29T01:12:29.620Z,79.39
2023-01-29T01:14:56.235Z,79.38
2023-01-29T01:17:23.684Z,79.18
2023-01-29T01:19:50.648Z,79.01
2023-01-29T01:22:17.822Z,79.21
2023-01-29T01:24:44.685Z,79.24
2023-01-29T01:27:13.544Z,79.23
2023-01-29T01:29:41.046Z,79.04
2023-01-29T01:32:07.868Z,78.90
2023-01-29T01:34:34.509Z,78.76
2023-01-29T01:37:01.481Z,78.67
2023-01-29T01:39:28.143Z,78.75
2023-01-29T01:41:55.075Z,78.65
2023-01-29T01:44:55.911Z,78.60
2023-01-29T01:47:31.706Z,78.53
2023-01-29T01:50:08.316Z,78.57
2023-01-29T01:52:39.277Z,78.18
2023-01-29T01:55:07.960Z,78.10
2023-01-29T01:57:34.932Z,78.01
2023-01-29T02:00:13.556Z,78.22
2023-01-29T02:03:02.359Z,78.29
2023-01-29T02:05:51.157Z,78.11
2023-01-29T02:09:06.721Z,78.09
2023-01-29T02:11:36.449Z,77.77
2023-01-29T02:14:03.650Z,77.45
2023-01-29T02:16:30.457Z,77.37
2023-01-29T02:18:57.161Z,77.44
2023-01-29T02:22:10.440Z,77.53
2023-01-29T02:25:23.351Z,77.57
2023-01-29T02:28:30.980Z,76.64
2023-01-29T02:31:25.483Z,76.18
2023-01-29T02:34:18.296Z,76.42
2023-01-29T02:36:51.780Z,76.43
2023-01-29T02:39:37.480Z,76.22
2023-01-29T02:42:17.627Z,76.26
2023-01-29T02:44:56.015Z,76.46
2023-01-29T02:47:50.158Z,76.36
2023-01-29T02:50:32.200Z,76.20
2023-01-29T02:53:22.403Z,75.81
2023-01-29T02:55:57.087Z,75.39
2023-01-29T02:58:43.074Z,75.20
2023-01-29T03:01:20.107Z,74.74
2023-01-29T03:03:54.456Z,75.12
2023-01-29T03:06:28.319Z,75.19
2023-01-29T03:09:05.445Z,75.12
2023-01-29T03:11:41.513Z,75.08
2023-01-29T03:14:16.948Z,75.16
2023-01-29T03:16:52.855Z,75.49
2023-01-29T03:19:37.252Z,75.34
2023-01-29T03:22:09.993Z,75.57
2023-01-29T03:25:03.117Z,75.54
2023-01-29T03:28:05.058Z,75.56
2023-01-29T03:31:02.401Z,75.10
2023-01-29T03:33:51.277Z,75.22
2023-01-29T03:36:38.044Z,75.35
2023-01-29T03:39:07.680Z,75.20
2023-01-29T03:41:58.143Z,75.17
2023-01-29T03:44:40.414Z,74.92
2023-01-29T03:47:46.379Z,74.80
2023-01-29T03:51:10.396Z,74.96
2023-01-29T03:53:49.418Z,74.66
2023-01-29T03:56:53.081Z,74.98
2023-01-29T04:00:04.347Z,74.70
2023-01-29T04:03:08.384Z,74.38
2023-01-29T04:05:45.017Z,74.32
2023-01-29T04:08:26.574Z,74.19
2023-01-29T04:10:58.045Z,74.20
2023-01-29T04:13:25.221Z,74.10
2023-01-29T04:15:57.953Z,73.76
2023-01-29T04:18:39.594Z,73.78
2023-01-29T04:21:08.664Z,73.82
2023-01-29T04:23:35.554Z,74.05
2023-01-29T04:26:21.923Z,74.13
2023-01-29T04:29:13.995Z,73.98
2023-01-29T04:32:20.477Z,73.96
2023-01-29T04:35:05.785Z,73.73
2023-01-29T04:38:00.652Z,74.01
2023-01-29T04:40:51.167Z,73.88
2023-01-29T04:44:00.362Z,73.84
2023-01-29T04:46:35.381Z,73.76
2023-01-29T04:49:35.496Z,73.72
2023-01-29T04:52:16.225Z,73.94
2023-01-29T04:55:06.708Z,73.97
2023-01-29T04:58:08.177Z,73.49
2023-01-29T05:00:42.143Z,73.35
2023-01-29T05:03:12.065Z,73.51
2023-01-29T05:05:43.039Z,73.33
2023-01-29T05:08:13.839Z,73.62
2023-01-29T05:10:40.393Z,74.16
2023-01-29T05:13:12.309Z,74.40
2023-01-29T05:15:50.831Z,74.55
2023-01-29T05:18:17.552Z,74.67
2023-01-29T05:20:44.627Z,74.57
2023-01-29T05:23:17.636Z,74.54
2023-01-29T05:25:45.605Z,74.90
2023-01-29T05:28:18.578Z,74.99
2023-01-29T05:30:48.622Z,74.99
2023-01-29T05:33:31.417Z,75.03
2023-01-29T05:36:01.091Z,75.24
2023-01-29T05:38:27.937Z,75.25
2023-01-29T05:40:54.837Z,75.19
2023-01-29T05:43:24.795Z,75.10
2023-01-29T05:45:58.129Z,74.64
2023-01-29T05:48:29.069Z,74.55
2023-01-29T05:51:01.800Z,74.34
2023-01-29T05:53:32.948Z,74.03
2023-01-29T05:56:04.222Z,73.15
2023-01-29T05:58:33.152Z,73.37
2023-01-29T06:01:12.027Z,74.30
2023-01-29T06:03:38.723Z,74.59
2023-01-29T06:06:05.758Z,74.21
2023-01-29T06:08:32.376Z,74.34
2023-01-29T06:10:59.161Z,74.32
2023-01-29T06:13:25.918Z,74.48
2023-01-29T06:15:52.582Z,74.49
2023-01-29T06:18:19.251Z,74.54
2023-01-29T06:20:45.819Z,74.78
2023-01-29T06:23:12.390Z,74.74
2023-01-29T06:25:39.035Z,74.64
2023-01-29T06:28:05.700Z,74.55
2023-01-29T06:30:32.453Z,74.60
2023-01-29T06:33:01.564Z,74.54
2023-01-29T06:35:28.382Z,74.72
2023-01-29T06:37:56.620Z,74.88
2023-01-29T06:40:23.232Z,74.95
2023-01-29T06:42:49.805Z,74.47
2023-01-29T06:45:16.552Z,74.39
2023-01-29T06:47:43.268Z,74.60
2023-01-29T06:50:11.585Z,74.48
2023-01-29T06:52:38.211Z,74.29
2023-01-29T06:55:05.556Z,74.47
2023-01-29T06:57:32.143Z,74.37
2023-01-29T06:59:59.670Z,74.21
2023-01-29T07:02:26.374Z,74.01
2023-01-29T07:04:52.959Z,73.50
2023-01-29T07:07:19.580Z,73.34
2023-01-29T07:09:46.204Z,73.27
2023-01-29T07:12:12.748Z,72.95
2023-01-29T07:14:39.316Z,72.56
2023-01-29T07:17:05.924Z,72.49
2023-01-29T07:19:32.578Z,72.84
2023-01-29T07:22:02.360Z,72.92
2023-01-29T07:24:29.118Z,72.93
2023-01-29T07:26:55.908Z,73.03
2023-01-29T07:29:22.593Z,72.70
2023-01-29T07:31:49.329Z,72.41
2023-01-29T07:34:16.028Z,72.09
2023-01-29T07:36:42.676Z,72.04
2023-01-29T07:39:09.269Z,71.97
2023-01-29T07:41:35.843Z,71.76
2023-01-29T07:44:07.999Z,71.88
2023-01-29T07:46:34.538Z,71.94
2023-01-29T07:49:01.297Z,71.97
2023-01-29T07:51:27.890Z,71.91
2023-01-29T07:53:54.518Z,71.84
2023-01-29T07:56:21.135Z,71.64
2023-01-29T07:58:47.854Z,71.64
2023-01-29T08:01:14.832Z,71.52
2023-01-29T08:03:41.553Z,71.24
2023-01-29T08:06:08.282Z,71.20
2023-01-29T08:08:34.924Z,71.39
2023-01-29T08:11:05.649Z,71.59
2023-01-29T08:13:33.393Z,71.52
2023-01-29T08:16:02.600Z,71.40
2023-01-29T08:18:31.583Z,71.37
2023-01-29T08:21:02.352Z,71.06
2023-01-29T08:23:29.498Z,70.89
2023-01-29T08:25:56.139Z,70.71
2023-01-29T08:28:22.833Z,70.72
2023-01-29T08:30:49.600Z,70.84
2023-01-29T08:33:17.604Z,71.29
2023-01-29T08:35:51.420Z,70.97
2023-01-29T08:38:18.445Z,70.30
2023-01-29T08:40:45.231Z,69.92
2023-01-29T08:43:13.504Z,69.66
2023-01-29T08:45:43.242Z,69.82
2023-01-29T08:48:10.991Z,69.56
2023-01-29T08:50:38.360Z,69.88
2023-01-29T08:53:08.157Z,69.88
2023-01-29T08:55:46.294Z,70.07
2023-01-29T08:58:12.871Z,69.82
2023-01-29T09:00:39.573Z,69.39
2023-01-29T09:03:07.896Z,69.39
2023-01-29T09:05:39.999Z,70.01
2023-01-29T09:08:08.342Z,70.16
2023-01-29T09:10:36.097Z,70.20
2023-01-29T09:13:02.685Z,70.27
2023-01-29T09:15:29.461Z,70.15
2023-01-29T09:17:56.078Z,70.25
2023-01-29T09:20:22.682Z,69.84
2023-01-29T09:22:50.740Z,69.92
2023-01-29T09:25:17.828Z,70.31
2023-01-29T09:27:44.630Z,70.45
2023-01-29T09:30:11.978Z,70.29
2023-01-29T09:32:54.762Z,70.76
2023-01-29T09:35:23.458Z,70.82
2023-01-29T09:37:51.498Z,70.73
2023-01-29T09:40:32.721Z,70.29
2023-01-29T09:43:10.353Z,70.46
2023-01-29T09:45:45.994Z,70.67
2023-01-29T09:48:14.693Z,70.75
2023-01-29T09:50:47.602Z,70.90
2023-01-29T09:53:26.222Z,71.03
2023-01-29T09:56:05.553Z,70.75
2023-01-29T09:58:40.581Z,70.97
2023-01-29T10:01:30.994Z,71.14
2023-01-29T10:04:39.446Z,71.12
2023-01-29T10:07:47.233Z,70.84
2023-01-29T10:10:18.989Z,71.15
2023-01-29T10:13:20.256Z,71.28
2023-01-29T10:15:58.647Z,71.17
2023-01-29T10:19:03.248Z,70.54
2023-01-29T10:21:48.938Z,70.87
2023-01-29T10:24:52.628Z,70.78
2023-01-29T10:27:20.153Z,70.71
2023-01-29T10:29:51.146Z,70.56
2023-01-29T10:32:25.533Z,70.37
2023-01-29T10:35:29.276Z,70.36
2023-01-29T10:38:09.149Z,70.59
2023-01-29T10:40:50.870Z,70.61
2023-01-29T10:43:29.820Z,70.19
2023-01-29T10:46:09.759Z,70.40
2023-01-29T10:48:56.249Z,70.72
2023-01-29T10:52:05.919Z,70.33
2023-01-29T10:55:16.147Z,69.58
2023-01-29T10:58:46.788Z,69.77
2023-01-29T11:01:14.164Z,69.49
2023-01-29T11:03:40.803Z,69.50
2023-01-29T11:06:25.328Z,70.01
2023-01-29T11:09:29.556Z,69.85
2023-01-29T11:12:06.086Z,69.61
2023-01-29T11:14:47.771Z,69.81
2023-01-29T11:17:17.487Z,69.58
2023-01-29T11:19:48.470Z,69.62
2023-01-29T11:22:22.009Z,69.74
2023-01-29T11:25:12.586Z,70.01
2023-01-29T11:28:02.445Z,70.28
2023-01-29T11:30:40.005Z,70.10
2023-01-29T11:33:22.138Z,70.08
2023-01-29T11:35:48.761Z,69.86
2023-01-29T11:38:29.068Z,69.53
2023-01-29T11:41:14.428Z,69.26
2023-01-29T11:43:41.060Z,69.27
2023-01-29T11:46:14.629Z,69.58
2023-01-29T11:48:51.676Z,69.52
2023-01-29T11:51:28.868Z,69.72
2023-01-29T11:54:00.846Z,69.64
2023-01-29T11:56:34.422Z,69.33
2023-01-29T11:59:04.534Z,68.96
2023-01-29T12:01:41.436Z,68.60
2023-01-29T12:04:26.673Z,68.17
2023-01-29T12:06:54.686Z,67.71
2023-01-29T12:09:28.294Z,67.64
2023-01-29T12:11:55.345Z,67.59
2023-01-29T12:14:34.158Z,67.57
2023-01-29T12:17:14.119Z,67.25
2023-01-29T12:19:57.671Z,67.02
2023-01-29T12:23:02.291Z,66.80
2023-01-29T12:26:11.134Z,65.89
2023-01-29T12:29:17.445Z,66.51
2023-01-29T12:31:53.288Z,67.35
2023-01-29T12:34:34.359Z,67.92
2023-01-29T12:37:20.202Z,67.81
2023-01-29T12:39:47.271Z,67.88
2023-01-29T12:42:22.659Z,67.45
2023-01-29T12:44:59.855Z,67.26
2023-01-29T12:47:47.942Z,67.68
2023-01-29T12:50:21.692Z,67.25
2023-01-29T12:52:57.397Z,67.26
2023-01-29T12:55:34.964Z,67.43
2023-01-29T12:58:06.244Z,67.26
2023-01-29T13:00:38.788Z,67.32
2023-01-29T13:03:33.070Z,67.24
2023-01-29T13:06:21.047Z,67.09
2023-01-29T13:09:15.176Z,66.82
2023-01-29T13:11:54.416Z,66.83
2023-01-29T13:14:44.410Z,66.72
2023-01-29T13:17:28.205Z,66.33
2023-01-29T13:20:02.269Z,66.43
2023-01-29T13:22:35.178Z,66.47
2023-01-29T13:25:05.466Z,66.28
2023-01-29T13:27:35.298Z,66.15
2023-01-29T13:30:02.561Z,66.05
2023-01-29T13:32:32.238Z,65.95
2023-01-29T13:35:05.302Z,66.18
2023-01-29T13:37:42.103Z,66.15
2023-01-29T13:40:24.257Z,66.18
2023-01-29T13:42:54.193Z,66.29
2023-01-29T13:45:41.800Z,66.51
2023-01-29T13:48:19.300Z,66.77
2023-01-29T13:50:47.340Z,66.87
2023-01-29T13:53:41.950Z,66.76
2023-01-29T13:56:33.618Z,66.73
2023-01-29T13:59:03.338Z,66.66
2023-01-29T14:01:48.381Z,66.46
2023-01-29T14:04:29.564Z,66.61
2023-01-29T14:06:58.814Z,66.73
2023-01-29T14:09:37.471Z,66.49
2023-01-29T14:12:25.052Z,66.33
2023-01-29T14:15:05.865Z,66.29
2023-01-29T14:17:32.595Z,66.56
2023-01-29T14:20:17.994Z,66.50
2023-01-29T14:22:44.834Z,66.53
2023-01-29T14:25:19.481Z,66.17
2023-01-29T14:27:49.923Z,66.38
2023-01-29T14:30:19.078Z,66.41
2023-01-29T14:32:54.073Z,66.29
2023-01-29T14:35:24.719Z,66.37
2023-01-29T14:37:55.236Z,66.53
2023-01-29T14:40:28.084Z,66.66
2023-01-29T14:43:09.596Z,66.70
2023-01-29T14:45:44.826Z,66.76
2023-01-29T14:48:11.397Z,66.78
2023-01-29T14:50:43.627Z,67.33
2023-01-29T14:53:15.209Z,67.64
2023-01-29T14:56:23.421Z,68.05
2023-01-29T14:58:52.910Z,68.45
2023-01-29T15:01:36.319Z,68.39
2023-01-29T15:04:12.207Z,68.24
2023-01-29T15:07:00.639Z,67.99
2023-01-29T15:09:45.831Z,68.08
2023-01-29T15:12:32.706Z,68.08
2023-01-29T15:15:17.635Z,68.38
2023-01-29T15:18:02.196Z,68.60
2023-01-29T15:20:38.604Z,68.96
2023-01-29T15:23:27.237Z,69.12
2023-01-29T15:26:03.931Z,69.08
2023-01-29T15:28:33.737Z,69.14
2023-01-29T15:31:04.546Z,69.11
2023-01-29T15:33:33.613Z,69.19
2023-01-29T15:36:07.298Z,69.40
2023-01-29T15:38:35.241Z,69.47
2023-01-29T15:41:20.704Z,69.39
2023-01-29T15:43:50.469Z,69.14
2023-01-29T15:46:35.521Z,68.97
2023-01-29T15:49:09.126Z,68.91
2023-01-29T15:51:36.074Z,69.09
2023-01-29T15:54:06.938Z,69.53
2023-01-29T15:56:40.193Z,69.61
2023-01-29T15:59:16.928Z,69.61
2023-01-29T16:01:43.807Z,69.60
2023-01-29T16:04:17.090Z,69.53
2023-01-29T16:06:44.091Z,69.25
2023-01-29T16:09:19.091Z,69.20
2023-01-29T16:11:47.739Z,69.19
2023-01-29T16:14:19.171Z,69.14
2023-01-29T16:16:48.573Z,69.25
2023-01-29T16:19:23.819Z,69.30
2023-01-29T16:22:01.133Z,69.29
2023-01-29T16:24:29.561Z,69.32
2023-01-29T16:27:03.508Z,69.71
2023-01-29T16:29:33.205Z,69.80
2023-01-29T16:32:02.693Z,69.81
2023-01-29T16:34:36.086Z,69.87
2023-01-29T16:37:07.450Z,69.91
2023-01-29T16:39:39.323Z,69.96
2023-01-29T16:42:19.985Z,70.08
2023-01-29T16:45:00.457Z,70.20
2023-01-29T16:47:36.086Z,70.22
2023-01-29T16:50:17.801Z,70.44
2023-01-29T16:53:02.933Z,70.35
2023-01-29T16:55:41.355Z,70.02
2023-01-29T16:58:25.287Z,70.09
2023-01-29T17:01:01.224Z,70.13
2023-01-29T17:03:30.941Z,69.93
2023-01-29T17:05:57.869Z,69.63
2023-01-29T17:08:33.467Z,69.60
2023-01-29T17:11:01.183Z,69.62
2023-01-29T17:13:44.149Z,69.51
2023-01-29T17:16:27.680Z,69.63
2023-01-29T17:18:54.681Z,69.88
2023-01-29T17:21:21.339Z,69.99
2023-01-29T17:23:48.012Z,70.13
2023-01-29T17:26:15.604Z,70.20
2023-01-29T17:28:42.965Z,70.14
2023-01-29T17:31:10.361Z,70.17
2023-01-29T17:33:42.078Z,70.15
2023-01-29T17:36:14.832Z,70.20
2023-01-29T17:38:41.639Z,70.15
2023-01-29T17:41:21.541Z,69.94
2023-01-29T17:43:48.127Z,69.90
2023-01-29T17:46:17.126Z,69.96
2023-01-29T17:48:44.783Z,70.07
2023-01-29T17:51:17.300Z,70.01
2023-01-29T17:53:46.904Z,69.91
2023-01-29T17:56:21.741Z,69.90
2023-01-29T17:58:48.381Z,69.85
2023-01-29T18:01:15.948Z,69.79
2023-01-29T18:03:42.684Z,69.69
2023-01-29T18:06:10.324Z,69.63
2023-01-29T18:08:38.797Z,69.77
2023-01-29T18:11:06.294Z,69.69
2023-01-29T18:13:35.444Z,69.84
2023-01-29T18:16:02.453Z,69.69
2023-01-29T18:18:29.104Z,69.61
2023-01-29T18:20:55.642Z,69.65
2023-01-29T18:23:22.422Z,69.73
2023-01-29T18:25:49.113Z,69.98
2023-01-29T18:28:17.738Z,69.96
2023-01-29T18:30:47.246Z,70.03
2023-01-29T18:33:15.743Z,70.10
2023-01-29T18:35:50.094Z,70.27
2023-01-29T18:38:17.692Z,70.41
2023-01-29T18:40:44.432Z,70.32
2023-01-29T18:43:11.038Z,70.33
2023-01-29T18:45:37.679Z,70.30
2023-01-29T18:48:05.163Z,70.42
2023-01-29T18:50:32.113Z,70.42
2023-01-29T18:52:58.787Z,70.37
2023-01-29T18:55:28.389Z,70.32
2023-01-29T18:58:26.084Z,70.40
2023-01-29T19:00:43.846Z,70.40
2023-01-29T19:03:10.955Z,70.33
2023-01-29T19:05:37.744Z,70.31
2023-01-29T19:08:05.393Z,70.20
2023-01-29T19:10:33.154Z,70.34
2023-01-29T19:12:59.891Z,70.57
2023-01-29T19:15:26.720Z,70.70
2023-01-29T19:17:53.983Z,70.73
2023-01-29T19:20:20.870Z,70.79
2023-01-29T19:22:48.545Z,70.89
2023-01-29T19:25:16.148Z,70.98
2023-01-29T19:27:43.221Z,71.03
2023-01-29T19:30:12.704Z,71.15
2023-01-29T19:32:40.772Z,71.21
2023-01-29T19:35:07.741Z,71.11
2023-01-29T19:37:34.380Z,71.00
2023-01-29T19:40:01.068Z,71.01
2023-01-29T19:42:28.225Z,71.07
2023-01-29T19:44:54.893Z,71.10
2023-01-29T19:47:21.607Z,71.16
2023-01-29T19:49:48.220Z,71.22
2023-01-29T19:52:41.384Z,71.33
2023-01-29T19:55:16.609Z,71.60
2023-01-29T19:57:43.504Z,71.68
2023-01-29T20:00:12.106Z,71.85
2023-01-29T20:02:38.855Z,71.99
2023-01-29T20:05:07.893Z,72.04
2023-01-29T20:07:35.986Z,72.07
2023-01-29T20:10:02.742Z,72.16
2023-01-29T20:12:29.977Z,72.16
2023-01-29T20:14:56.700Z,72.16
2023-01-29T20:17:23.683Z,72.30
2023-01-29T20:19:50.258Z,72.24
2023-01-29T20:22:16.932Z,72.30
2023-01-29T20:24:43.698Z,72.32
2023-01-29T20:27:10.804Z,72.46
2023-01-29T20:29:40.447Z,72.62
2023-01-29T20:32:08.986Z,72.68
2023-01-29T20:34:36.380Z,72.73
2023-01-29T20:37:03.227Z,72.73
2023-01-29T20:39:30.068Z,72.77
2023-01-29T20:41:57.332Z,72.79
2023-01-29T20:44:25.684Z,72.96
2023-01-29T20:46:52.590Z,73.07
2023-01-29T20:49:19.408Z,73.20
2023-01-29T20:51:46.179Z,73.30
2023-01-29T20:54:12.984Z,73.26
2023-01-29T20:56:42.930Z,73.20
2023-01-29T20:59:11.373Z,73.20
2023-01-29T21:01:38.049Z,73.18
2023-01-29T21:04:04.753Z,73.19
2023-01-29T21:06:31.479Z,73.20
2023-01-29T21:08:58.092Z,73.24
2023-01-29T21:11:24.823Z,73.25
2023-01-29T21:13:54.828Z,73.40
2023-01-29T21:16:21.453Z,73.49
2023-01-29T21:18:48.155Z,73.51
2023-01-29T21:21:14.771Z,73.50
2023-01-29T21:23:41.641Z,73.51
2023-01-29T21:26:08.909Z,73.58
2023-01-29T21:28:35.738Z,73.74
2023-01-29T21:31:14.397Z,73.78
2023-01-29T21:33:41.069Z,73.86
2023-01-29T21:36:10.001Z,73.90
2023-01-29T21:38:37.004Z,73.92
2023-01-29T21:41:08.192Z,73.90
2023-01-29T21:43:35.495Z,73.90
2023-01-29T21:46:11.408Z,73.96
2023-01-29T21:48:39.613Z,74.04
2023-01-29T21:51:06.991Z,74.09
2023-01-29T21:53:34.676Z,74.09
2023-01-29T21:56:03.753Z,74.09
2023-01-29T21:58:30.860Z,74.12
2023-01-29T22:01:36.976Z,74.14
2023-01-29T22:03:47.060Z,74.14
2023-01-29T22:06:14.267Z,74.20
2023-01-29T22:08:40.879Z,74.20
2023-01-29T22:11:08.197Z,74.20
2023-01-29T22:13:35.150Z,74.20
2023-01-29T22:16:02.494Z,74.21
2023-01-29T22:18:29.287Z,74.29
2023-01-29T22:20:56.999Z,74.30
2023-01-29T22:23:24.201Z,74.27
2023-01-29T22:25:50.757Z,74.27
2023-01-29T22:28:18.437Z,74.29
2023-01-29T22:30:45.222Z,74.24
2023-01-29T22:33:12.263Z,74.22
2023-01-29T22:35:38.834Z,74.21
2023-01-29T22:38:05.439Z,74.23
2023-01-29T22:40:32.015Z,74.23
2023-01-29T22:42:58.738Z,74.27
2023-01-29T22:45:25.630Z,74.22
2023-01-29T22:47:52.281Z,74.21
2023-01-29T22:50:19.349Z,74.24
2023-01-29T22:52:54.131Z,74.32
2023-01-29T22:55:21.086Z,74.30
2023-01-29T22:57:51.000Z,74.38
2023-01-29T23:00:18.701Z,74.47
2023-01-29T23:02:49.127Z,74.59
2023-01-29T23:05:17.286Z,74.59
2023-01-29T23:07:44.766Z,74.60
2023-01-29T23:10:16.317Z,74.64
2023-01-29T23:12:43.253Z,74.71
2023-01-29T23:15:09.988Z,74.81
2023-01-29T23:17:36.972Z,74.74
2023-01-29T23:20:03.933Z,74.76
2023-01-29T23:22:30.504Z,74.67
2023-01-29T23:24:57.044Z,74.69
2023-01-29T23:27:23.959Z,74.60
2023-01-29T23:29:50.537Z,74.57
2023-01-29T23:32:21.286Z,74.55
2023-01-29T23:34:47.938Z,74.61
2023-01-29T23:37:14.674Z,74.60
2023-01-29T23:39:41.378Z,74.57
2023-01-29T23:42:08.219Z,74.59
2023-01-29T23:44:35.709Z,74.54
2023-01-29T23:47:02.323Z,74.61
2023-01-29T23:49:28.965Z,74.65
2023-01-29T23:51:55.547Z,74.68
2023-01-29T23:54:22.169Z,74.77
2023-01-29T23:56:48.813Z,74.83
2023-01-29T23:59:16.162Z,74.85
